Bluarrow — CRXN — position and weather

sailwx.info

Track history (hours):
 
Tides and Currents Weather Stations Pressure Air Temp Water Temp Dewpoint Dewpoint Depression Visibility Wind Speed Wind Dir Waves Ship Positions

Bluarrow

Last reported at 2014-Oct-26 15:06 UTC. Time now 2014-Oct-31 20:45 UTC.
Position N 35°43' W 000°38'.

Length 126 m; draft 8.1 m.

Type: Cargo ship. MMSI: 255797000.

Date/timePositionNaut miles runAvg speedWind from/ knotsBaromVisibWave heightAir tempDewpointWater temp
2014-Oct-26 15:06N 35°43' W 000°38'0 0.0
2014-Oct-26 14:30N 35°43' W 000°38'0 0.0
2014-Oct-26 13:24N 35°43' W 000°38'0 0.0
2014-Oct-25 21:24N 35°43' W 000°38'0 0.0
2014-Oct-25 19:06N 35°43' W 000°38'0 0.0
2014-Oct-25 15:24N 35°43' W 000°38'0 0.0
2014-Oct-25 09:12N 35°43' W 000°38'0 0.0
2014-Oct-25 02:30N 35°43' W 000°38'0 0.0
2014-Oct-24 23:06N 35°43' W 000°38'0 0.0
2014-Oct-24 22:30N 35°43' W 000°38'0 0.0
2014-Oct-24 21:30N 35°43' W 000°38'0 0.0
2014-Oct-24 20:30N 35°43' W 000°38'0 0.0
2014-Oct-24 19:12N 35°43' W 000°38'0 0.0
2014-Oct-24 18:30N 35°43' W 000°38'0 0.0
2014-Oct-24 17:06N 35°43' W 000°38'0 0.0
2014-Oct-24 16:30N 35°43' W 000°38'0 0.0
2014-Oct-24 12:24N 35°43' W 000°38'0 0.0
2014-Oct-24 10:06N 35°43' W 000°38'0 0.0
2014-Oct-24 04:24N 35°43' W 000°38'0 0.0
2014-Oct-24 00:30N 35°43' W 000°38'0 0.0
2014-Oct-23 22:30N 35°43' W 000°38'0 0.0
2014-Oct-23 21:18N 35°43' W 000°38'0 0.0
2014-Oct-23 18:12N 35°43' W 000°38'1 0.0
2014-Oct-21 15:22N 35°43' W 000°39'4 4.4
2014-Oct-21 14:30N 35°46' W 000°37'0 0.2
2014-Oct-21 13:33N 35°46' W 000°37'0 0.0
2014-Oct-21 12:33N 35°46' W 000°37'0 0.0
2014-Oct-21 00:09N 35°46' W 000°37'0 0.0
2014-Oct-20 23:27N 35°46' W 000°37'0 0.0
2014-Oct-20 22:27N 35°46' W 000°37'0 0.0
2014-Oct-20 16:27N 35°46' W 000°37'0 0.0
2014-Oct-19 20:21N 35°46' W 000°37'0 0.1
2014-Oct-19 19:33N 35°46' W 000°37'0 0.0
2014-Oct-19 18:21N 35°46' W 000°37'0 0.0
2014-Oct-19 16:33N 35°46' W 000°37'228 8.4
2014-Oct-18 13:33N 35°55' W 005°18'1 1.4
2014-Oct-18 12:31N 35°54' W 005°18'0 0.0
2014-Oct-18 11:31N 35°54' W 005°18'0 0.0
2014-Oct-18 10:31N 35°54' W 005°18'0 0.0
2014-Oct-18 09:31N 35°54' W 005°18'0 0.0
2014-Oct-18 08:31N 35°54' W 005°18'0 0.1
2014-Oct-18 07:33N 35°54' W 005°19'2 1.7
2014-Oct-18 06:33N 35°55' W 005°19'2 2.2
2014-Oct-18 05:33N 35°57' W 005°21'6 6.3
2014-Oct-18 04:33N 35°56' W 005°29'82 9.1
2014-Oct-17 19:33N 36°06' W 007°10'23 9.1
2014-Oct-17 17:05N 36°12' W 007°37'16 9.3
2014-Oct-17 15:21N 36°17' W 007°56'95 7.4
2014-Oct-17 02:31N 37°17' W 009°28'8 8.3
2014-Oct-17 01:32N 37°24' W 009°24'10 8.3
2014-Oct-17 00:20N 37°34' W 009°20'7 8.5
2014-Oct-16 23:33N 37°40' W 009°17'9 8.7
2014-Oct-16 22:33N 37°48' W 009°15'8 8.4
2014-Oct-16 21:33N 37°56' W 009°12'9 8.8
2014-Oct-16 20:33N 38°05' W 009°08'8 8.2
2014-Oct-16 19:33N 38°13' W 009°05'8 8.4
2014-Oct-16 18:33N 38°21' W 009°02'8 7.4
2014-Oct-16 17:32N 38°27' W 008°58'3 2.3
2014-Oct-16 16:26N 38°30' W 008°56'0 0.0
2014-Oct-16 15:32N 38°30' W 008°56'  
Track history (hours):
 
Tides and Currents Weather Stations Pressure Air Temp Water Temp Dewpoint Dewpoint Depression Visibility Wind Speed Wind Dir Waves Ship Positions

Bluarrow

Last reported at 2014-Oct-26 15:06 UTC. Time now 2014-Oct-31 20:45 UTC.
Position N 35°43' W 000°38'.

Length 126 m; draft 8.1 m.

Type: Cargo ship. MMSI: 255797000.

Date/timePositionNaut miles runAvg speedWind from/ knotsBaromVisibWave heightAir tempDewpointWater temp
2014-Oct-26 15:06N 35°43' W 000°38'0 0.0
2014-Oct-26 14:30N 35°43' W 000°38'0 0.0
2014-Oct-26 13:24N 35°43' W 000°38'0 0.0
2014-Oct-25 21:24N 35°43' W 000°38'0 0.0
2014-Oct-25 19:06N 35°43' W 000°38'0 0.0
2014-Oct-25 15:24N 35°43' W 000°38'0 0.0
2014-Oct-25 09:12N 35°43' W 000°38'0 0.0
2014-Oct-25 02:30N 35°43' W 000°38'0 0.0
2014-Oct-24 23:06N 35°43' W 000°38'0 0.0
2014-Oct-24 22:30N 35°43' W 000°38'0 0.0
2014-Oct-24 21:30N 35°43' W 000°38'0 0.0
2014-Oct-24 20:30N 35°43' W 000°38'0 0.0
2014-Oct-24 19:12N 35°43' W 000°38'0 0.0
2014-Oct-24 18:30N 35°43' W 000°38'0 0.0
2014-Oct-24 17:06N 35°43' W 000°38'0 0.0
2014-Oct-24 16:30N 35°43' W 000°38'0 0.0
2014-Oct-24 12:24N 35°43' W 000°38'0 0.0
2014-Oct-24 10:06N 35°43' W 000°38'0 0.0
2014-Oct-24 04:24N 35°43' W 000°38'0 0.0
2014-Oct-24 00:30N 35°43' W 000°38'0 0.0
2014-Oct-23 22:30N 35°43' W 000°38'0 0.0
2014-Oct-23 21:18N 35°43' W 000°38'0 0.0
2014-Oct-23 18:12N 35°43' W 000°38'1 0.0
2014-Oct-21 15:22N 35°43' W 000°39'4 4.4
2014-Oct-21 14:30N 35°46' W 000°37'0 0.2
2014-Oct-21 13:33N 35°46' W 000°37'0 0.0
2014-Oct-21 12:33N 35°46' W 000°37'0 0.0
2014-Oct-21 00:09N 35°46' W 000°37'0 0.0
2014-Oct-20 23:27N 35°46' W 000°37'0 0.0
2014-Oct-20 22:27N 35°46' W 000°37'0 0.0
2014-Oct-20 16:27N 35°46' W 000°37'0 0.0
2014-Oct-19 20:21N 35°46' W 000°37'0 0.1
2014-Oct-19 19:33N 35°46' W 000°37'0 0.0
2014-Oct-19 18:21N 35°46' W 000°37'0 0.0
2014-Oct-19 16:33N 35°46' W 000°37'228 8.4
2014-Oct-18 13:33N 35°55' W 005°18'1 1.4
2014-Oct-18 12:31N 35°54' W 005°18'0 0.0
2014-Oct-18 11:31N 35°54' W 005°18'0 0.0
2014-Oct-18 10:31N 35°54' W 005°18'0 0.0
2014-Oct-18 09:31N 35°54' W 005°18'0 0.0
2014-Oct-18 08:31N 35°54' W 005°18'0 0.1
2014-Oct-18 07:33N 35°54' W 005°19'2 1.7
2014-Oct-18 06:33N 35°55' W 005°19'2 2.2
2014-Oct-18 05:33N 35°57' W 005°21'6 6.3
2014-Oct-18 04:33N 35°56' W 005°29'82 9.1
2014-Oct-17 19:33N 36°06' W 007°10'23 9.1
2014-Oct-17 17:05N 36°12' W 007°37'16 9.3
2014-Oct-17 15:21N 36°17' W 007°56'95 7.4
2014-Oct-17 02:31N 37°17' W 009°28'8 8.3
2014-Oct-17 01:32N 37°24' W 009°24'10 8.3
2014-Oct-17 00:20N 37°34' W 009°20'7 8.5
2014-Oct-16 23:33N 37°40' W 009°17'9 8.7
2014-Oct-16 22:33N 37°48' W 009°15'8 8.4
2014-Oct-16 21:33N 37°56' W 009°12'9 8.8
2014-Oct-16 20:33N 38°05' W 009°08'8 8.2
2014-Oct-16 19:33N 38°13' W 009°05'8 8.4
2014-Oct-16 18:33N 38°21' W 009°02'8 7.4
2014-Oct-16 17:32N 38°27' W 008°58'3 2.3
2014-Oct-16 16:26N 38°30' W 008°56'0 0.0
2014-Oct-16 15:32N 38°30' W 008°56'  

Dump ship's entire track history